Time;durP1;ratioP1;P1;durP2;ratioP2;P2;SDS_P1;SDS_P2;PMS_P1;PMS_P2;Temp;Humidity;BMP_temperature;BMP_pressure;BME280_temperature;BME280_humidity;BME280_pressure;Samples;Min_cycle;Max_cycle;Signal;HPM_P1;HPM_P2
2022/11/14 00:02:09;;;;;;;18.50;9.13;;;9.10;56.90;;;;;;5072313;28;20439;-92
2022/11/14 00:04:55;;;;;;;14.03;10.57;;;9.20;57.00;;;;;;5101137;28;20494;-89
2022/11/14 00:07:40;;;;;;;12.60;9.00;;;9.20;57.20;;;;;;5096077;28;20498;-88
2022/11/14 00:10:27;;;;;;;14.87;9.47;;;9.20;56.30;;;;;;5068923;28;20444;-90
2022/11/14 00:13:13;;;;;;;14.53;10.73;;;9.20;56.30;;;;;;5082224;28;20505;-89
2022/11/14 00:15:59;;;;;;;14.93;9.93;;;9.10;56.60;;;;;;5083509;28;20499;-89
2022/11/14 00:18:44;;;;;;;13.13;8.13;;;9.00;57.20;;;;;;5083110;28;20443;-88
2022/11/14 00:21:30;;;;;;;18.57;11.10;;;9.00;56.60;;;;;;5083837;28;20443;-89
2022/11/14 00:24:16;;;;;;;14.07;8.70;;;9.10;56.60;;;;;;5089187;28;20462;-89
2022/11/14 00:27:03;;;;;;;17.10;9.63;;;9.10;56.50;;;;;;5069852;28;20439;-89
2022/11/14 00:29:49;;;;;;;16.00;8.90;;;9.10;56.40;;;;;;5085987;28;21967;-90
2022/11/14 00:32:35;;;;;;;15.57;8.37;;;9.10;56.10;;;;;;5080463;28;20471;-90
2022/11/14 00:35:21;;;;;;;15.40;9.13;;;9.10;56.00;;;;;;5072272;28;20443;-92
2022/11/14 00:38:07;;;;;;;14.93;9.93;;;9.20;56.00;;;;;;5070594;28;20444;-89
2022/11/14 00:40:52;;;;;;;17.27;10.00;;;9.20;55.90;;;;;;5091206;28;20814;-90
2022/11/14 00:43:39;;;;;;;16.23;10.50;;;9.10;55.80;;;;;;5070186;28;20499;-89
2022/11/14 00:46:25;;;;;;;18.83;10.40;;;9.10;56.20;;;;;;5087890;28;20444;-92
2022/11/14 00:49:11;;;;;;;14.40;8.60;;;9.10;56.20;;;;;;5066296;28;20479;-89
2022/11/14 00:51:57;;;;;;;14.73;9.67;;;9.10;56.80;;;;;;5069784;28;20447;-88
2022/11/14 00:54:43;;;;;;;17.63;9.90;;;9.10;56.40;;;;;;5088085;28;20477;-89
2022/11/14 00:57:29;;;;;;;13.00;7.97;;;9.00;56.30;;;;;;5090795;28;20528;-94
2022/11/14 01:00:16;;;;;;;13.93;9.90;;;9.00;56.50;;;;;;5099251;28;20446;-90
2022/11/14 01:03:02;;;;;;;14.37;9.03;;;8.80;57.50;;;;;;5080979;28;20569;-91
2022/11/14 01:05:50;;;;;;;12.23;8.60;;;8.90;57.60;;;;;;5083455;28;20445;-89
2022/11/14 01:08:36;;;;;;;13.40;8.97;;;9.00;56.60;;;;;;5088952;28;20468;-89
2022/11/14 01:11:23;;;;;;;13.50;8.63;;;9.00;56.10;;;;;;5085996;28;20449;-89
2022/11/14 01:14:09;;;;;;;13.00;8.20;;;8.90;56.30;;;;;;5072352;28;20459;-89
2022/11/14 01:16:56;;;;;;;13.30;9.33;;;9.00;56.20;;;;;;5070372;28;20443;-89
2022/11/14 01:19:43;;;;;;;12.87;9.23;;;8.90;56.30;;;;;;5072534;28;20470;-90
2022/11/14 01:22:30;;;;;;;12.10;7.97;;;8.90;56.30;;;;;;5074995;28;20447;-90
2022/11/14 01:25:16;;;;;;;12.03;8.63;;;8.90;55.80;;;;;;5085317;28;21038;-94
2022/11/14 01:28:02;;;;;;;13.63;7.83;;;8.90;55.50;;;;;;5070591;28;20462;-89
2022/11/14 01:30:48;;;;;;;16.03;9.10;;;9.00;55.60;;;;;;5084413;28;20452;-89
2022/11/14 01:33:35;;;;;;;13.40;8.60;;;8.90;55.80;;;;;;5069194;28;20503;-89
2022/11/14 01:36:22;;;;;;;15.47;9.60;;;8.80;55.70;;;;;;5087581;28;20439;-87
2022/11/14 01:39:07;;;;;;;15.07;9.77;;;8.60;57.00;;;;;;5067239;28;20431;-90
2022/11/14 01:41:54;;;;;;;14.73;9.60;;;8.50;57.80;;;;;;5082172;28;20798;-90
2022/11/14 01:44:46;;;;;;;14.07;9.30;;;8.60;57.30;;;;;;5081149;28;20473;-90
2022/11/14 01:47:33;;;;;;;16.50;10.20;;;8.50;58.50;;;;;;5084353;28;20454;-88
2022/11/14 01:50:20;;;;;;;18.53;11.57;;;7.80;60.00;;;;;;5071797;28;20488;-89
2022/11/14 01:53:06;;;;;;;19.23;12.00;;;7.60;60.90;;;;;;5067759;28;20496;-89
2022/11/14 01:55:55;;;;;;;14.77;9.70;;;7.90;60.80;;;;;;5080538;28;20994;-90
2022/11/14 01:58:46;;;;;;;14.53;9.10;;;8.10;59.60;;;;;;5100387;28;21122;-89
2022/11/14 02:01:35;;;;;;;15.87;9.40;;;8.30;58.40;;;;;;5080548;28;20446;-88
2022/11/14 02:04:24;;;;;;;14.30;9.33;;;8.30;57.70;;;;;;5083877;28;20495;-88
2022/11/14 02:07:12;;;;;;;17.10;10.07;;;8.40;57.10;;;;;;5081337;28;20457;-90
2022/11/14 02:10:01;;;;;;;16.67;9.50;;;8.40;56.80;;;;;;5083823;28;20473;-89
2022/11/14 02:12:47;;;;;;;21.37;10.10;;;8.40;56.70;;;;;;5072147;28;20435;-88
2022/11/14 02:15:34;;;;;;;15.20;9.00;;;8.50;56.80;;;;;;5088134;28;20439;-93
2022/11/14 02:18:20;;;;;;;12.13;9.20;;;8.50;56.70;;;;;;5074625;28;20454;-89
2022/11/14 02:21:08;;;;;;;15.13;8.00;;;8.40;57.20;;;;;;5072516;28;20438;-91
2022/11/14 02:23:54;;;;;;;14.87;8.57;;;8.30;57.20;;;;;;5088322;28;20547;-90
2022/11/14 02:26:41;;;;;;;13.57;8.97;;;8.30;56.90;;;;;;5080082;28;20451;-87
2022/11/14 02:29:27;;;;;;;13.83;9.30;;;8.30;56.50;;;;;;5082438;28;20460;-90
2022/11/14 02:32:12;;;;;;;15.60;8.77;;;8.40;56.10;;;;;;5072418;28;20439;-90
2022/11/14 02:34:59;;;;;;;11.20;8.70;;;8.40;56.10;;;;;;5083099;28;20470;-89
2022/11/14 02:37:46;;;;;;;17.03;9.07;;;8.10;56.70;;;;;;5064399;28;20443;-89
2022/11/14 02:40:32;;;;;;;15.47;8.90;;;7.80;57.90;;;;;;5072493;28;20442;-88
2022/11/14 02:43:18;;;;;;;15.03;9.43;;;7.90;57.40;;;;;;5088136;28;20462;-88
2022/11/14 02:46:04;;;;;;;15.73;9.03;;;8.00;56.80;;;;;;5080809;28;20581;-89
2022/11/14 02:48:49;;;;;;;12.17;8.50;;;8.10;56.60;;;;;;5071794;28;20522;-89
2022/11/14 02:51:35;;;;;;;12.50;8.07;;;8.20;56.40;;;;;;5080286;28;20442;-90
2022/11/14 02:54:22;;;;;;;14.67;8.50;;;8.20;56.10;;;;;;5083780;28;20474;-87
2022/11/14 02:57:08;;;;;;;10.90;7.33;;;8.10;56.70;;;;;;5066401;28;20442;-88
2022/11/14 02:59:54;;;;;;;9.87;7.67;;;8.20;57.10;;;;;;5072455;28;20788;-89
2022/11/14 03:02:39;;;;;;;13.00;6.60;;;8.20;56.60;;;;;;5068787;28;20450;-89
2022/11/14 03:05:25;;;;;;;14.37;8.50;;;8.30;56.30;;;;;;5083604;28;20533;-88
2022/11/14 03:08:11;;;;;;;14.20;7.83;;;8.30;55.90;;;;;;5081051;28;20456;-89
2022/11/14 03:11:04;;;;;;;13.70;8.13;;;8.30;55.40;;;;;;5084495;28;20446;-89
2022/11/14 03:13:49;;;;;;;13.17;7.17;;;8.20;55.30;;;;;;5072207;28;20462;-89
2022/11/14 03:16:35;;;;;;;13.10;7.93;;;8.20;55.20;;;;;;5085538;28;20451;-89
2022/11/14 03:19:21;;;;;;;11.77;8.13;;;8.20;55.10;;;;;;5097459;28;20441;-89
2022/11/14 03:22:06;;;;;;;15.53;8.00;;;8.10;55.10;;;;;;5071008;28;20431;-89
2022/11/14 03:24:52;;;;;;;9.40;7.60;;;8.10;55.40;;;;;;5070368;28;20498;-88
2022/11/14 03:27:39;;;;;;;13.17;8.30;;;8.10;55.80;;;;;;5069973;28;20439;-89
2022/11/14 03:30:25;;;;;;;10.47;8.27;;;8.10;55.40;;;;;;5068552;28;20458;-89
2022/11/14 03:33:10;;;;;;;13.50;8.23;;;8.00;55.60;;;;;;5087970;28;20529;-89
2022/11/14 03:35:56;;;;;;;15.80;9.07;;;8.00;56.10;;;;;;5091375;28;20435;-89
2022/11/14 03:38:44;;;;;;;17.27;8.60;;;8.00;56.20;;;;;;5085141;28;20462;-88
2022/11/14 03:41:29;;;;;;;15.40;9.10;;;7.70;56.80;;;;;;5086076;28;20457;-88
2022/11/14 03:44:17;;;;;;;15.80;9.00;;;7.70;56.90;;;;;;5075132;28;20600;-87
2022/11/14 03:47:03;;;;;;;17.60;8.93;;;7.70;56.90;;;;;;5073093;28;20448;-89
2022/11/14 03:49:49;;;;;;;12.60;8.60;;;7.80;56.80;;;;;;5075257;28;21051;-88
2022/11/14 03:52:35;;;;;;;11.93;8.80;;;7.80;56.10;;;;;;5071272;28;20452;-90
2022/11/14 03:55:21;;;;;;;13.90;9.83;;;7.80;55.90;;;;;;5072236;28;20458;-89
2022/11/14 03:58:08;;;;;;;19.07;10.97;;;7.40;57.50;;;;;;5088891;28;20439;-89
2022/11/14 04:00:56;;;;;;;16.43;10.00;;;7.40;58.80;;;;;;5092034;28;20950;-90
2022/11/14 04:03:41;;;;;;;14.93;10.30;;;7.60;57.50;;;;;;5073877;28;21119;-89
2022/11/14 04:06:27;;;;;;;24.17;9.43;;;7.70;56.90;;;;;;5073678;28;20440;-91
2022/11/14 04:09:13;;;;;;;14.73;8.90;;;7.80;57.20;;;;;;5100634;28;20480;-89
2022/11/14 04:12:00;;;;;;;13.00;9.50;;;7.70;57.70;;;;;;5086182;28;20535;-89
2022/11/14 04:14:48;;;;;;;15.93;8.83;;;7.90;57.90;;;;;;5075340;28;20501;-89
2022/11/14 04:17:36;;;;;;;15.63;10.37;;;7.70;59.00;;;;;;5070207;28;20472;-90
2022/11/14 04:20:22;;;;;;;16.63;11.90;;;7.70;59.60;;;;;;5069383;28;21017;-91
2022/11/14 04:23:08;;;;;;;12.27;9.20;;;7.70;59.60;;;;;;5083430;28;20445;-90
2022/11/14 04:25:54;;;;;;;15.90;10.23;;;7.70;60.00;;;;;;5090515;28;20468;-89
2022/11/14 04:28:40;;;;;;;15.57;10.90;;;7.90;59.50;;;;;;5068155;28;20450;-89
2022/11/14 04:31:27;;;;;;;17.93;10.57;;;8.10;59.40;;;;;;5090697;28;20443;-90
2022/11/14 04:34:14;;;;;;;13.13;9.40;;;8.00;59.50;;;;;;5086632;28;20466;-90
2022/11/14 04:37:00;;;;;;;14.30;9.30;;;8.10;59.30;;;;;;5071407;28;20447;-88
2022/11/14 04:39:45;;;;;;;16.03;9.83;;;8.20;59.20;;;;;;5075695;28;20532;-89
2022/11/14 04:42:31;;;;;;;21.43;10.40;;;8.20;59.40;;;;;;5087404;28;20454;-90
2022/11/14 04:45:17;;;;;;;16.23;9.90;;;8.20;59.20;;;;;;5102771;28;20470;-92
2022/11/14 04:48:03;;;;;;;22.30;15.30;;;8.30;59.30;;;;;;5083959;28;20436;-88
2022/11/14 04:50:50;;;;;;;32.27;16.67;;;8.40;59.20;;;;;;5085814;28;20464;-89
2022/11/14 04:53:35;;;;;;;29.60;17.37;;;8.30;58.80;;;;;;5080975;28;20470;-88
2022/11/14 04:56:46;;;;;;;32.20;18.33;;;8.00;59.80;;;;;;5067743;28;20519;-89
2022/11/14 04:59:32;;;;;;;40.83;18.77;;;8.10;60.10;;;;;;5085267;28;20537;-90
2022/11/14 05:02:17;;;;;;;26.87;15.23;;;7.80;60.90;;;;;;5106147;28;20878;-88
2022/11/14 05:05:03;;;;;;;30.07;17.27;;;7.70;62.00;;;;;;5098824;28;20468;-88
2022/11/14 05:07:50;;;;;;;23.87;15.30;;;7.60;63.10;;;;;;5089117;28;21866;-89
2022/11/14 05:10:36;;;;;;;26.27;15.67;;;7.60;64.00;;;;;;5073049;28;20994;-89
2022/11/14 05:13:23;;;;;;;22.17;14.27;;;8.00;63.20;;;;;;5071351;28;20468;-89
2022/11/14 05:16:09;;;;;;;23.47;14.17;;;8.20;62.20;;;;;;5083004;28;20451;-90
2022/11/14 05:18:55;;;;;;;18.47;13.10;;;8.40;61.80;;;;;;5067766;28;20471;-89
2022/11/14 05:21:41;;;;;;;18.10;12.90;;;8.40;61.50;;;;;;5083375;28;20447;-90
2022/11/14 05:24:28;;;;;;;18.43;11.20;;;8.40;61.30;;;;;;5100872;28;20615;-88
2022/11/14 05:27:14;;;;;;;19.47;11.97;;;8.60;61.10;;;;;;5082450;28;20448;-89
2022/11/14 05:30:00;;;;;;;20.10;12.43;;;8.60;61.40;;;;;;5091028;28;21129;-89
2022/11/14 05:32:45;;;;;;;18.50;12.03;;;8.70;61.30;;;;;;5084864;28;20531;-90
2022/11/14 05:35:31;;;;;;;20.17;12.13;;;8.60;60.90;;;;;;5081559;28;20968;-88
2022/11/14 05:38:17;;;;;;;17.83;11.93;;;8.50;61.90;;;;;;5087930;28;20454;-89
2022/11/14 05:41:07;;;;;;;18.67;12.30;;;8.50;62.00;;;;;;5068365;28;20438;-90
2022/11/14 05:43:52;;;;;;;18.17;12.10;;;8.80;61.30;;;;;;5086787;28;20456;-90
2022/11/14 05:46:38;;;;;;;20.80;13.80;;;8.90;60.90;;;;;;5071784;28;20454;-91
2022/11/14 05:49:24;;;;;;;29.77;16.80;;;8.90;60.50;;;;;;5083282;28;20462;-89
2022/11/14 05:52:10;;;;;;;26.87;15.40;;;8.60;62.40;;;;;;5090081;28;20443;-90
2022/11/14 05:54:55;;;;;;;22.27;14.10;;;8.80;62.00;;;;;;5075070;28;20466;-92
2022/11/14 05:57:42;;;;;;;24.23;14.07;;;9.00;61.30;;;;;;5074306;28;20439;-89
2022/11/14 06:00:28;;;;;;;33.63;16.50;;;9.00;61.20;;;;;;5091070;28;20524;-89
2022/11/14 06:03:14;;;;;;;30.83;15.17;;;9.00;62.30;;;;;;5070558;28;20447;-88
2022/11/14 06:06:03;;;;;;;26.37;15.40;;;9.20;62.00;;;;;;5087268;28;20446;-92
2022/11/14 06:08:50;;;;;;;28.53;14.77;;;9.10;62.10;;;;;;5085065;28;20976;-90
2022/11/14 06:11:36;;;;;;;25.67;15.63;;;9.20;62.00;;;;;;5087633;28;20581;-90
2022/11/14 06:14:24;;;;;;;29.17;16.20;;;9.30;61.40;;;;;;5088561;28;20459;-90
2022/11/14 06:17:10;;;;;;;24.07;14.57;;;9.30;60.90;;;;;;5057898;28;20452;-88
2022/11/14 06:19:57;;;;;;;26.60;14.57;;;9.30;61.30;;;;;;5088821;28;20579;-88
2022/11/14 06:22:43;;;;;;;35.67;17.93;;;9.30;61.30;;;;;;5068797;28;20447;-90
2022/11/14 06:25:29;;;;;;;45.30;17.73;;;9.10;63.20;;;;;;5074458;28;20544;-91
2022/11/14 06:28:16;;;;;;;43.00;18.60;;;9.10;64.10;;;;;;5065162;28;20563;-91
2022/11/14 06:31:21;;;;;;;39.03;20.30;;;9.10;64.50;;;;;;5089766;28;20462;-89
2022/11/14 06:34:14;;;;;;;36.73;18.80;;;9.10;64.80;;;;;;5064539;28;20839;-89
2022/11/14 06:37:00;;;;;;;36.83;17.80;;;9.00;64.90;;;;;;5075535;28;20464;-91
2022/11/14 06:39:46;;;;;;;34.63;19.10;;;8.90;65.40;;;;;;5082606;28;20588;-90
2022/11/14 06:42:31;;;;;;;39.67;18.97;;;9.00;65.90;;;;;;5104007;28;20434;-92
2022/11/14 06:45:17;;;;;;;37.00;19.33;;;9.20;65.60;;;;;;5087022;28;20706;-91
2022/11/14 06:48:03;;;;;;;40.67;20.17;;;9.30;65.20;;;;;;5089664;28;20466;-90
2022/11/14 06:50:52;;;;;;;33.03;17.63;;;9.50;64.60;;;;;;5070910;28;20549;-90
2022/11/14 06:53:39;;;;;;;31.83;17.40;;;9.60;63.70;;;;;;5068131;28;20498;-91
2022/11/14 06:56:24;;;;;;;39.50;17.63;;;9.80;63.70;;;;;;5073540;28;20431;-90
2022/11/14 06:59:10;;;;;;;31.27;16.60;;;9.40;64.30;;;;;;5084460;28;20450;-91
2022/11/14 07:01:57;;;;;;;45.83;19.33;;;9.30;65.30;;;;;;5090549;28;20466;-90
2022/11/14 07:04:44;;;;;;;36.77;18.40;;;9.50;64.70;;;;;;5080177;28;20465;-91
2022/11/14 07:07:57;;;;;;;34.17;18.80;;;9.80;64.30;;;;;;5113397;28;20432;-89
2022/11/14 07:10:45;;;;;;;37.30;19.00;;;9.80;64.10;;;;;;5072968;28;20455;-90
2022/11/14 07:13:39;;;;;;;36.33;18.90;;;9.90;63.90;;;;;;5077796;28;20466;-90
2022/11/14 07:20:13;;;;;;;49.60;23.67;;;10.10;62.30;;;;;;5094632;28;20423;-89
2022/11/14 07:26:58;;;;;;;81.70;37.97;;;10.30;61.70;;;;;;5088239;28;20542;-89
2022/11/14 07:29:54;;;;;;;69.07;38.50;;;10.20;61.60;;;;;;5086827;28;20456;-89
2022/11/14 07:32:44;;;;;;;59.10;32.80;;;10.30;61.70;;;;;;5076473;28;20443;-90
2022/11/14 07:39:37;;;;;;;34.27;18.60;;;10.40;62.00;;;;;;5069180;28;20447;-89
2022/11/14 07:42:24;;;;;;;38.30;18.40;;;10.40;61.90;;;;;;5056146;28;20505;-89
2022/11/14 07:45:37;;;;;;;35.77;18.13;;;10.50;61.60;;;;;;5079705;28;20973;-89
2022/11/14 07:48:26;;;;;;;29.17;18.60;;;10.20;63.20;;;;;;5070849;28;20469;-90
2022/11/14 07:51:15;;;;;;;32.67;17.43;;;10.30;62.90;;;;;;5097379;28;20471;-90
2022/11/14 07:54:02;;;;;;;35.33;17.87;;;10.10;63.20;;;;;;5095819;28;20978;-89
2022/11/14 07:57:16;;;;;;;31.60;18.20;;;10.20;63.60;;;;;;5113829;28;20928;-90
2022/11/14 08:00:29;;;;;;;35.30;20.27;;;10.10;64.40;;;;;;5111908;28;20434;-89
2022/11/14 08:03:23;;;;;;;46.63;24.43;;;10.40;63.40;;;;;;5092616;28;20532;-90
2022/11/14 08:06:14;;;;;;;38.57;19.97;;;10.50;62.60;;;;;;5086293;28;20923;-90
2022/11/14 08:09:11;;;;;;;37.03;20.17;;;10.40;62.30;;;;;;5097412;28;20463;-90
2022/11/14 08:12:06;;;;;;;32.83;18.30;;;10.50;62.50;;;;;;5079876;28;20458;-89
2022/11/14 08:15:29;;;;;;;48.43;26.63;;;10.20;63.10;;;;;;5094261;28;21083;-90
2022/11/14 08:21:15;;;;;;;44.70;25.70;;;10.30;63.10;;;;;;5088512;28;20423;-91
2022/11/14 08:24:30;;;;;;;39.10;21.90;;;10.40;63.10;;;;;;5096263;28;20546;-96
2022/11/14 08:27:17;;;;;;;36.60;23.57;;;10.50;62.70;;;;;;5073444;28;20489;-90
2022/11/14 08:30:32;;;;;;;38.93;19.47;;;10.50;63.00;;;;;;5092448;28;20455;-91
2022/11/14 08:33:19;;;;;;;28.43;17.43;;;10.40;62.90;;;;;;5079064;28;20449;-89
2022/11/14 08:36:08;;;;;;;34.17;19.30;;;10.50;62.80;;;;;;5088877;28;20526;-89
2022/11/14 08:41:57;;;;;;;30.90;14.73;;;10.20;63.50;;;;;;5095506;28;20435;-89
2022/11/14 08:44:58;;;;;;;29.30;16.97;;;10.20;63.90;;;;;;5097452;28;20455;-89
2022/11/14 08:48:04;;;;;;;27.07;15.67;;;10.30;63.80;;;;;;5079354;28;20576;-89
2022/11/14 08:51:04;;;;;;;26.53;15.27;;;10.60;63.50;;;;;;5078351;28;20490;-90
2022/11/14 08:53:53;;;;;;;24.77;15.13;;;10.80;62.80;;;;;;5077783;28;20451;-89
2022/11/14 08:56:40;;;;;;;26.63;14.67;;;10.80;63.00;;;;;;5076494;28;20447;-89
2022/11/14 08:59:37;;;;;;;25.00;12.77;;;10.80;61.90;;;;;;5092555;28;20443;-94
2022/11/14 09:02:29;;;;;;;25.57;16.17;;;10.90;62.40;;;;;;5088033;28;21089;-89
2022/11/14 09:05:21;;;;;;;30.80;14.83;;;10.70;62.40;;;;;;5073105;28;20489;-89
2022/11/14 09:08:11;;;;;;;36.63;22.00;;;10.80;63.00;;;;;;5077527;28;20439;-90
2022/11/14 09:14:01;;;;;;;24.37;14.63;;;10.50;63.50;;;;;;5077517;28;20454;-90
2022/11/14 09:16:51;;;;;;;24.57;14.37;;;10.70;63.60;;;;;;5093052;28;20439;-89
2022/11/14 09:19:44;;;;;;;29.30;14.67;;;10.90;63.20;;;;;;5091041;28;20435;-91
2022/11/14 09:22:36;;;;;;;30.77;13.80;;;10.60;63.30;;;;;;5069036;28;20440;-90
2022/11/14 09:25:25;;;;;;;27.77;16.37;;;10.90;63.60;;;;;;5107899;28;20459;-91
2022/11/14 09:28:11;;;;;;;26.63;15.93;;;11.00;63.00;;;;;;5073920;28;20873;-89
2022/11/14 09:31:01;;;;;;;24.27;13.73;;;11.10;62.60;;;;;;5111273;28;20478;-89
2022/11/14 09:33:47;;;;;;;23.30;13.23;;;11.10;62.30;;;;;;5069545;28;20515;-90
2022/11/14 09:36:32;;;;;;;26.73;13.70;;;11.20;62.30;;;;;;5104440;28;20436;-90
2022/11/14 09:39:30;;;;;;;23.43;13.73;;;11.20;61.70;;;;;;5094427;28;20443;-90
2022/11/14 09:42:37;;;;;;;21.67;11.87;;;10.80;63.30;;;;;;5072415;28;20609;-89
2022/11/14 09:45:24;;;;;;;18.50;11.20;;;10.80;63.30;;;;;;5089120;28;20557;-90
2022/11/14 09:48:13;;;;;;;21.60;12.93;;;11.00;63.20;;;;;;5089795;28;20527;-90
2022/11/14 09:51:09;;;;;;;21.57;12.00;;;11.10;62.60;;;;;;5076156;28;20455;-91
2022/11/14 09:54:03;;;;;;;22.47;12.70;;;11.20;62.70;;;;;;5075167;28;20463;-90
2022/11/14 09:57:00;;;;;;;17.33;10.67;;;11.40;62.10;;;;;;5073977;28;20454;-92
2022/11/14 09:59:46;;;;;;;19.77;11.80;;;11.30;61.60;;;;;;5074431;28;20853;-90
2022/11/14 10:02:43;;;;;;;20.57;11.43;;;11.30;62.20;;;;;;5087024;28;20954;-90
2022/11/14 10:05:56;;;;;;;21.10;12.53;;;11.20;62.70;;;;;;5071999;28;20573;-96
2022/11/14 10:08:53;;;;;;;18.10;11.07;;;11.20;62.70;;;;;;5085162;28;20477;-89
2022/11/14 10:11:43;;;;;;;20.13;11.30;;;11.20;62.80;;;;;;5107507;28;20977;-92
2022/11/14 10:14:55;;;;;;;16.30;10.63;;;11.30;62.50;;;;;;5089203;28;20519;-94
2022/11/14 10:18:10;;;;;;;20.00;11.10;;;11.50;61.80;;;;;;5088590;28;20795;-89
2022/11/14 10:21:04;;;;;;;26.07;14.43;;;11.60;62.60;;;;;;5070415;28;20455;-90
2022/11/14 10:24:03;;;;;;;20.17;11.20;;;11.40;61.70;;;;;;5109077;28;20997;-90
2022/11/14 10:26:59;;;;;;;17.20;10.47;;;11.50;62.60;;;;;;5074582;28;20501;-91
2022/11/14 10:30:17;;;;;;;23.83;12.70;;;11.40;62.00;;;;;;5104620;28;20443;-90
2022/11/14 10:33:34;;;;;;;23.97;13.40;;;11.10;63.20;;;;;;5084490;28;20431;-91
2022/11/14 10:36:34;;;;;;;17.60;11.60;;;11.40;63.10;;;;;;5069272;28;21032;-90
2022/11/14 10:39:27;;;;;;;17.23;11.67;;;11.40;62.80;;;;;;5076076;28;20459;-90
2022/11/14 10:42:26;;;;;;;13.23;9.60;;;11.20;62.70;;;;;;5086973;28;20530;-88
2022/11/14 10:45:25;;;;;;;18.20;10.70;;;11.30;62.90;;;;;;5089072;28;20458;-89
2022/11/14 10:48:17;;;;;;;20.57;12.20;;;11.40;63.60;;;;;;5064928;28;20541;-91
2022/11/14 10:51:08;;;;;;;18.63;10.87;;;12.00;63.00;;;;;;5087305;28;20462;-92
2022/11/14 10:54:02;;;;;;;17.30;11.07;;;12.20;60.90;;;;;;5090625;28;20446;-92
2022/11/14 10:56:50;;;;;;;16.83;9.60;;;12.20;60.30;;;;;;5089612;28;20778;-91
2022/11/14 10:59:37;;;;;;;17.40;11.70;;;12.20;61.30;;;;;;5084044;28;20436;-93
2022/11/14 11:02:26;;;;;;;20.33;11.50;;;12.20;60.90;;;;;;5072864;28;21164;-94
2022/11/14 11:05:16;;;;;;;17.53;10.70;;;12.00;61.60;;;;;;5085720;28;20516;-90
2022/11/14 11:14:18;;;;;;;18.63;11.33;;;12.10;62.00;;;;;;5076122;28;20490;-90
2022/11/14 11:17:24;;;;;;;19.67;11.90;;;12.10;62.20;;;;;;5087995;28;20580;-90
2022/11/14 11:20:28;;;;;;;19.90;12.30;;;11.80;62.10;;;;;;5070149;28;20489;-91
2022/11/14 11:23:24;;;;;;;18.23;10.87;;;12.10;62.00;;;;;;5076510;28;20933;-89
2022/11/14 11:30:04;;;;;;;16.10;9.93;;;12.40;61.40;;;;;;5088798;28;20964;-89
2022/11/14 11:32:51;;;;;;;21.50;11.43;;;12.80;60.80;;;;;;5094666;28;21146;-89
2022/11/14 11:35:41;;;;;;;20.27;11.63;;;12.60;60.70;;;;;;5075240;28;20989;-88
2022/11/14 11:38:29;;;;;;;19.37;11.90;;;12.60;60.90;;;;;;5092953;28;20919;-90
2022/11/14 11:41:23;;;;;;;17.90;10.20;;;12.70;60.90;;;;;;5095500;28;20431;-90
2022/11/14 11:44:17;;;;;;;17.50;10.83;;;12.70;60.20;;;;;;5093608;28;20543;-90
2022/11/14 11:47:08;;;;;;;16.07;10.43;;;12.90;60.40;;;;;;5112787;28;20443;-90
2022/11/14 11:50:04;;;;;;;20.80;10.37;;;12.90;60.10;;;;;;5095991;28;20435;-89
2022/11/14 11:53:10;;;;;;;18.70;11.43;;;13.20;59.90;;;;;;5084184;28;20487;-90
2022/11/14 11:56:05;;;;;;;16.10;10.60;;;13.20;59.50;;;;;;5091685;28;20447;-89
2022/11/14 11:58:58;;;;;;;16.97;10.20;;;13.20;59.90;;;;;;5074872;28;20437;-89
2022/11/14 12:01:44;;;;;;;18.23;11.23;;;13.20;60.20;;;;;;5072802;28;20430;-90
2022/11/14 12:04:36;;;;;;;17.27;10.90;;;13.30;59.90;;;;;;5090485;28;20496;-90
2022/11/14 12:07:31;;;;;;;20.93;12.30;;;13.60;59.70;;;;;;5076201;28;20450;-90
2022/11/14 12:10:28;;;;;;;21.87;13.33;;;13.50;59.10;;;;;;5076246;28;20518;-90
2022/11/14 12:13:41;;;;;;;18.27;11.77;;;13.40;59.30;;;;;;5089031;28;20431;-91
2022/11/14 12:17:17;;;;;;;22.00;12.83;;;13.20;59.30;;;;;;5075730;28;20740;-90
2022/11/14 12:20:20;;;;;;;23.63;13.57;;;13.40;59.70;;;;;;5071997;28;21009;-91
2022/11/14 12:23:25;;;;;;;23.33;15.30;;;13.30;59.80;;;;;;5070529;28;20977;-90
2022/11/14 12:26:27;;;;;;;17.60;12.33;;;13.40;60.40;;;;;;5076178;28;20438;-90
2022/11/14 12:29:34;;;;;;;19.00;11.20;;;13.50;60.20;;;;;;5091334;28;20517;-89
2022/11/14 12:32:30;;;;;;;13.30;9.37;;;13.40;60.20;;;;;;5077910;28;20868;-89
2022/11/14 12:35:21;;;;;;;17.10;10.33;;;13.40;60.30;;;;;;5091557;28;20536;-89
2022/11/14 12:38:18;;;;;;;16.37;10.07;;;13.20;60.10;;;;;;5071518;28;20441;-90
2022/11/14 12:41:09;;;;;;;17.90;12.00;;;13.20;60.80;;;;;;5075175;28;20953;-90
2022/11/14 12:44:18;;;;;;;19.73;12.63;;;13.30;60.50;;;;;;5092743;28;20465;-90
2022/11/14 12:47:27;;;;;;;18.87;13.20;;;13.40;60.00;;;;;;5072042;28;20431;-90
2022/11/14 12:50:39;;;;;;;24.03;13.97;;;13.50;59.90;;;;;;5079065;28;20438;-90
2022/11/14 12:53:43;;;;;;;23.70;13.20;;;13.70;59.30;;;;;;5073258;28;20743;-90
2022/11/14 12:56:58;;;;;;;22.53;12.47;;;13.60;59.60;;;;;;5073912;28;20443;-89
2022/11/14 12:59:59;;;;;;;20.63;13.37;;;13.60;59.60;;;;;;5075737;28;20463;-89
2022/11/14 13:03:18;;;;;;;15.47;11.37;;;13.60;59.80;;;;;;5083109;28;20482;-90
2022/11/14 13:06:09;;;;;;;21.03;13.20;;;13.60;59.80;;;;;;5077234;28;20576;-91
2022/11/14 13:09:22;;;;;;;18.77;12.90;;;13.70;59.50;;;;;;5072899;28;20447;-91
2022/11/14 13:22:35;;;;;;;17.37;11.17;;;13.90;59.70;;;;;;5088281;28;20507;-90
2022/11/14 13:25:22;;;;;;;40.77;24.67;;;13.90;59.20;;;;;;5073248;28;20978;-89
2022/11/14 13:28:46;;;;;;;38.53;21.00;;;13.90;59.40;;;;;;5070640;28;20463;-91
2022/11/14 13:31:50;;;;;;;26.27;16.17;;;13.70;59.80;;;;;;5071928;28;21080;-90
2022/11/14 13:34:44;;;;;;;22.03;12.30;;;13.60;60.10;;;;;;5085055;28;20464;-91
2022/11/14 13:37:45;;;;;;;20.60;13.87;;;13.30;61.30;;;;;;5071541;28;20448;-90
2022/11/14 13:40:39;;;;;;;20.17;12.90;;;13.50;60.90;;;;;;5073461;28;20518;-89
2022/11/14 13:43:37;;;;;;;17.43;11.07;;;13.40;60.70;;;;;;5072811;28;20507;-89
2022/11/14 13:46:35;;;;;;;21.63;12.43;;;13.40;60.90;;;;;;5089156;28;20588;-90
2022/11/14 13:49:37;;;;;;;15.97;10.43;;;13.40;61.20;;;;;;5062971;28;20535;-91
2022/11/14 13:52:26;;;;;;;17.80;10.63;;;13.50;61.00;;;;;;5107482;28;20477;-91
2022/11/14 13:55:21;;;;;;;20.60;11.90;;;13.80;60.60;;;;;;5080984;28;20950;-91
2022/11/14 13:58:25;;;;;;;21.60;15.30;;;13.90;59.90;;;;;;5073527;28;20580;-91
2022/11/14 14:01:24;;;;;;;18.00;11.70;;;13.70;60.00;;;;;;5074200;28;20435;-92
2022/11/14 14:04:22;;;;;;;16.70;10.97;;;13.80;60.50;;;;;;5058600;28;20460;-89
2022/11/14 14:07:18;;;;;;;16.23;12.20;;;13.80;60.20;;;;;;5072677;28;20977;-90
2022/11/14 14:10:14;;;;;;;15.67;9.77;;;14.10;59.60;;;;;;5075174;28;21037;-92
2022/11/14 14:13:11;;;;;;;20.07;12.67;;;14.20;59.30;;;;;;5074585;28;20463;-89
2022/11/14 14:16:05;;;;;;;22.50;12.40;;;14.30;59.20;;;;;;5067514;28;20908;-90
2022/11/14 14:19:01;;;;;;;17.70;11.43;;;14.50;59.00;;;;;;5105908;28;20542;-91
2022/11/14 14:21:56;;;;;;;19.23;11.90;;;14.60;58.80;;;;;;5081015;28;20833;-90
2022/11/14 14:24:59;;;;;;;17.57;11.90;;;14.70;58.40;;;;;;5102640;28;20467;-91
2022/11/14 14:27:55;;;;;;;16.23;9.90;;;14.70;58.30;;;;;;5083743;28;20447;-90
2022/11/14 14:30:41;;;;;;;18.60;11.17;;;14.50;59.00;;;;;;5082829;28;20439;-89
2022/11/14 14:33:28;;;;;;;19.37;12.90;;;14.60;58.50;;;;;;5100060;28;20501;-91
2022/11/14 14:36:19;;;;;;;17.37;11.47;;;14.70;58.30;;;;;;5083933;28;20450;-90
2022/11/14 14:39:19;;;;;;;17.67;12.20;;;14.80;58.20;;;;;;5066227;28;20427;-90
2022/11/14 14:42:12;;;;;;;37.30;25.47;;;14.60;58.20;;;;;;5074418;28;20450;-91
2022/11/14 14:44:59;;;;;;;23.90;16.40;;;14.70;58.60;;;;;;5070820;28;20495;-91
2022/11/14 14:47:47;;;;;;;36.13;22.40;;;14.80;58.20;;;;;;5085284;28;20464;-90
2022/11/14 14:50:37;;;;;;;28.70;18.73;;;14.80;58.00;;;;;;5067961;28;20423;-90
2022/11/14 14:53:27;;;;;;;28.97;19.70;;;14.80;57.90;;;;;;5072768;28;20486;-90
2022/11/14 14:56:19;;;;;;;37.93;21.13;;;14.80;57.90;;;;;;5104352;28;20446;-90
2022/11/14 14:59:18;;;;;;;23.50;13.30;;;14.80;58.00;;;;;;5100616;28;20450;-90
2022/11/14 15:02:13;;;;;;;28.07;16.27;;;14.70;58.10;;;;;;5073078;28;20448;-91
2022/11/14 15:05:00;;;;;;;33.40;22.57;;;14.60;58.00;;;;;;5071716;28;20464;-90
2022/11/14 15:07:48;;;;;;;36.13;20.20;;;14.60;58.00;;;;;;5088722;28;20580;-91
2022/11/14 15:10:33;;;;;;;26.57;16.67;;;14.60;58.10;;;;;;5080023;28;20464;-92
2022/11/14 15:13:20;;;;;;;27.77;18.13;;;14.60;58.00;;;;;;5072223;28;20463;-91
2022/11/14 15:16:08;;;;;;;22.57;14.73;;;14.50;58.00;;;;;;5074074;28;20926;-91
2022/11/14 15:18:56;;;;;;;28.03;16.90;;;14.50;57.90;;;;;;5072415;28;20458;-88
2022/11/14 15:21:44;;;;;;;18.77;13.20;;;14.30;57.80;;;;;;5102993;28;20447;-90